Gadsden, SC (29052)

1:03 PM EST on February 08, 2016 (GMT -0500)
RAWS | | Change Station
CLOSE
Current Station
Personal Weather Station
Location: Gadsden, SC
Elevation: 123 ft
Nearby Weather Stations

Elev 123 ft 33.81 °N, 80.78 °W | Updated 58 minutes ago

Scattered Clouds
Scattered Clouds
60.0 °F
Feels Like 60.0 °F
N
0.0
Wind Variable Wind from North
Gusts 0.0 mph

Today
High -- | Low -- °F
--% Chance of Precip.
Yesterday
High -- | Low -- °F
Precip. -- in
Pressure 29.74 in
Visibility 10.0 miles
Clouds Few 10000 ft
Scattered Clouds 20000 ft
Dew Point 33.0 °F
Humidity 36%
Rainfall in
Snow Depth Not available.
7:14 AM 6:00 PM
New Moon, 0% visible
METAR KMMT 081758Z 20013G19KT 10SM FEW100 SCT200 15/M01 A2973 RMK AO2A SLP070 T01491011 10149 21027 58036 $
Pressure 29.74 in
Visibility 10.0 miles
Clouds Few 10000 ft
Scattered Clouds 20000 ft
Dew Point 33.0 °F
Humidity 36%
Rainfall in
Snow Depth Not available.
7:14 AM 6:00 PM
New Moon, 0% visible
METAR KMMT 081758Z 20013G19KT 10SM FEW100 SCT200 15/M01 A2973 RMK AO2A SLP070 T01491011 10149 21027 58036 $

10-Day Weather Forecast

Almanac

Astronomy

Feb. 08, 2016 Rise Set
Actual Time
Civil Twilight
Nautical Twilight
Astronomical Twilight
Moon
Length of Visible Light
Length of Day
Tomorrow will be .
, % of the Moon is Illuminated

Today's Extremes

State Highs State Lows

Community

WunderPhotos

Upload Photos

1,891,475 photos uploaded!

WunderBlog® & News

Nearby

Air Quality

  Air Quality AQ Index Pollutant
Not available.

Snow Depth

Station Depth Elevation

Earthquake Activity

City Distance Mag. Time & Date
Minimum magnitude displayed is 2.5.

Coastal Water Temperatures

Place Temperature

Stations

Nearby Weather Stations

Station Location Temp. Windchill Dew Point Humidity Wind Precip. Elev Updated Type
                   

Watches & Warnings

There are currently no watches in effect.